createdAt,value
2022-09-25T00:01:01.750Z,100572.75
2022-09-25T00:03:30.000Z,100575.06
2022-09-25T00:06:05.087Z,100579.53
2022-09-25T00:08:33.209Z,100581.09
2022-09-25T00:11:00.931Z,100578.44
2022-09-25T00:13:27.999Z,100577.50
2022-09-25T00:15:56.487Z,100571.47
2022-09-25T00:18:43.846Z,100565.47
2022-09-25T00:21:14.171Z,100571.25
2022-09-25T00:23:44.774Z,100577.59
2022-09-25T00:26:13.296Z,100564.28
2022-09-25T00:28:42.734Z,100566.81
2022-09-25T00:31:10.832Z,100551.84
2022-09-25T00:33:37.989Z,100554.34
2022-09-25T00:36:07.311Z,100552.13
2022-09-25T00:38:35.791Z,100549.09
2022-09-25T00:41:04.372Z,100548.66
2022-09-25T00:43:40.575Z,100542.75
2022-09-25T00:46:19.399Z,100545.38
2022-09-25T00:48:51.955Z,100548.88
2022-09-25T00:51:22.221Z,100542.66
2022-09-25T00:53:50.060Z,100550.47
2022-09-25T00:56:17.203Z,100548.03
2022-09-25T00:58:44.348Z,100547.09
2022-09-25T01:01:11.524Z,100550.78
2022-09-25T01:03:40.425Z,100541.69
2022-09-25T01:06:09.048Z,100542.66
2022-09-25T01:08:36.637Z,100546.78
2022-09-25T01:11:03.935Z,100538.00
2022-09-25T01:13:31.000Z,100536.41
2022-09-25T01:16:19.381Z,100534.47
2022-09-25T01:19:09.602Z,100530.16
2022-09-25T01:21:42.411Z,100521.06
2022-09-25T01:24:33.967Z,100524.97
2022-09-25T01:27:06.909Z,100524.97
2022-09-25T01:29:39.665Z,100527.50
2022-09-25T01:32:37.409Z,100523.88
2022-09-25T01:35:08.774Z,100520.41
2022-09-25T01:37:47.616Z,100526.03
2022-09-25T01:40:33.960Z,100520.84
2022-09-25T01:43:18.183Z,100526.66
2022-09-25T01:45:52.986Z,100529.09
2022-09-25T01:48:25.027Z,100533.41
2022-09-25T01:50:59.515Z,100533.63
2022-09-25T01:53:32.510Z,100526.78
2022-09-25T01:56:07.055Z,100524.00
2022-09-25T01:58:42.104Z,100524.22
2022-09-25T02:01:17.568Z,100521.81
2022-09-25T02:03:47.043Z,100524.66
2022-09-25T02:06:19.759Z,100522.03
2022-09-25T02:08:54.033Z,100517.69
2022-09-25T02:11:21.471Z,100518.41
2022-09-25T02:13:55.761Z,100515.56
2022-09-25T02:16:27.833Z,100519.16
2022-09-25T02:19:13.293Z,100511.34
2022-09-25T02:22:07.159Z,100507.84
2022-09-25T02:24:42.503Z,100516.63
2022-09-25T02:27:09.548Z,100516.84
2022-09-25T02:29:36.615Z,100515.97
2022-09-25T02:32:06.241Z,100514.50
2022-09-25T02:34:33.422Z,100509.56
2022-09-25T02:37:00.606Z,100511.03
2022-09-25T02:39:30.248Z,100507.22
2022-09-25T02:42:42.727Z,100514.94
2022-09-25T02:45:19.185Z,100517.38
2022-09-25T02:48:01.061Z,100510.50
2022-09-25T02:50:47.818Z,100515.78
2022-09-25T02:53:36.636Z,100516.63
2022-09-25T02:56:08.969Z,100510.50
2022-09-25T02:58:52.912Z,100509.44
2022-09-25T03:01:22.811Z,100512.28
2022-09-25T03:03:52.072Z,100505.22
2022-09-25T03:06:19.694Z,100501.59
2022-09-25T03:08:49.328Z,100504.56
2022-09-25T03:11:19.641Z,100509.34
2022-09-25T03:13:55.935Z,100506.91
2022-09-25T03:16:36.443Z,100505.97
2022-09-25T03:19:03.926Z,100512.53
2022-09-25T03:21:31.976Z,100508.19
2022-09-25T03:23:59.953Z,100504.81
2022-09-25T03:26:27.420Z,100504.91
2022-09-25T03:28:54.718Z,100504.00
2022-09-25T03:31:22.101Z,100504.81
2022-09-25T03:33:49.482Z,100501.09
2022-09-25T03:36:18.958Z,100504.00
2022-09-25T03:38:48.245Z,100500.59
2022-09-25T03:41:20.097Z,100506.00
2022-09-25T03:43:54.455Z,100497.94
2022-09-25T03:46:24.932Z,100491.72
2022-09-25T03:48:53.148Z,100500.38
2022-09-25T03:51:20.492Z,100503.88
2022-09-25T03:53:48.608Z,100495.44
2022-09-25T03:56:18.608Z,100496.28
2022-09-25T03:58:46.839Z,100494.47
2022-09-25T04:01:14.727Z,100493.75
2022-09-25T04:03:45.518Z,100492.03
2022-09-25T04:06:14.532Z,100493.75
2022-09-25T04:08:42.259Z,100488.03
2022-09-25T04:11:09.353Z,100491.19
2022-09-25T04:13:37.272Z,100490.56
2022-09-25T04:16:06.184Z,100491.50
2022-09-25T04:18:33.520Z,100487.31
2022-09-25T04:21:08.363Z,100491.00
2022-09-25T04:23:36.618Z,100487.19
2022-09-25T04:26:04.077Z,100487.72
2022-09-25T04:28:32.180Z,100491.31
2022-09-25T04:30:59.618Z,100486.03
2022-09-25T04:33:48.467Z,100486.03
2022-09-25T04:36:19.276Z,100491.31
2022-09-25T04:38:47.949Z,100494.91
2022-09-25T04:41:20.091Z,100493.94
2022-09-25T04:43:47.695Z,100490.47
2022-09-25T04:46:20.918Z,100484.34
2022-09-25T04:48:49.098Z,100490.78
2022-09-25T04:51:16.205Z,100489.00
2022-09-25T04:53:43.302Z,100497.97
2022-09-25T04:56:15.495Z,100488.69
2022-09-25T04:58:47.836Z,100485.41
2022-09-25T05:01:16.337Z,100487.94
2022-09-25T05:03:43.615Z,100482.25
2022-09-25T05:06:10.777Z,100481.19
2022-09-25T05:08:37.854Z,100481.06
2022-09-25T05:11:04.962Z,100482.56
2022-09-25T05:13:32.043Z,100485.84
2022-09-25T05:15:59.209Z,100491.97
2022-09-25T05:18:26.709Z,100489.31
2022-09-25T05:20:54.219Z,100493.97
2022-09-25T05:23:22.040Z,100491.44
2022-09-25T05:25:53.234Z,100488.28
2022-09-25T05:28:20.305Z,100485.53
2022-09-25T05:30:47.433Z,100490.06
2022-09-25T05:33:14.522Z,100491.31
2022-09-25T05:35:41.572Z,100498.53
2022-09-25T05:38:08.857Z,100496.50
2022-09-25T05:40:39.212Z,100498.31
2022-09-25T05:43:06.760Z,100501.56
2022-09-25T05:45:35.631Z,100509.41
2022-09-25T05:48:07.249Z,100496.91
2022-09-25T05:50:34.533Z,100498.09
2022-09-25T05:53:03.637Z,100494.47
2022-09-25T05:55:31.312Z,100499.44
2022-09-25T05:58:02.840Z,100502.00
2022-09-25T06:00:33.062Z,100497.75
2022-09-25T06:03:01.265Z,100494.28
2022-09-25T06:05:28.818Z,100504.19
2022-09-25T06:07:56.243Z,100503.03
2022-09-25T06:10:26.277Z,100498.41
2022-09-25T06:12:59.896Z,100503.47
2022-09-25T06:15:28.258Z,100500.59
2022-09-25T06:17:56.116Z,100500.72
2022-09-25T06:20:23.760Z,100501.44
2022-09-25T06:22:57.497Z,100504.84
2022-09-25T06:25:26.518Z,100503.75
2022-09-25T06:27:54.982Z,100512.31
2022-09-25T06:30:23.599Z,100512.75
2022-09-25T06:32:57.517Z,100511.06
2022-09-25T06:35:24.571Z,100517.28
2022-09-25T06:37:51.720Z,100516.13
2022-09-25T06:40:18.816Z,100515.06
2022-09-25T06:42:46.913Z,100513.91
2022-09-25T06:45:14.053Z,100517.69
2022-09-25T06:47:41.198Z,100513.25
2022-09-25T06:50:08.489Z,100515.97
2022-09-25T06:52:42.105Z,100509.66
2022-09-25T06:55:09.187Z,100511.34
2022-09-25T06:57:38.013Z,100515.78
2022-09-25T07:00:05.788Z,100506.88
2022-09-25T07:02:51.752Z,100515.91
2022-09-25T07:05:18.942Z,100515.06
2022-09-25T07:07:46.387Z,100515.91
2022-09-25T07:10:13.524Z,100519.16
2022-09-25T07:12:41.376Z,100512.94
2022-09-25T07:15:08.739Z,100506.81
2022-09-25T07:17:36.147Z,100506.88
2022-09-25T07:20:03.639Z,100508.16
2022-09-25T07:22:30.741Z,100503.28
2022-09-25T07:24:57.814Z,100505.50
2022-09-25T07:27:25.023Z,100502.81
2022-09-25T07:29:52.461Z,100498.97
2022-09-25T07:32:20.677Z,100494.91
2022-09-25T07:34:50.939Z,100496.34
2022-09-25T07:37:18.377Z,100496.25
2022-09-25T07:39:45.487Z,100495.28
2022-09-25T07:42:13.015Z,100498.44
2022-09-25T07:44:43.481Z,100508.66
2022-09-25T07:47:15.289Z,100507.16
2022-09-25T07:49:42.381Z,100510.63
2022-09-25T07:52:09.464Z,100511.38
2022-09-25T07:54:37.744Z,100513.28
2022-09-25T07:57:04.882Z,100503.09
2022-09-25T07:59:31.974Z,100501.19
2022-09-25T08:01:59.159Z,100499.88
2022-09-25T08:04:26.300Z,100493.19
2022-09-25T08:06:53.399Z,100489.84
2022-09-25T08:09:20.452Z,100487.69
2022-09-25T08:11:47.513Z,100484.47
2022-09-25T08:14:14.752Z,100474.72
2022-09-25T08:16:43.075Z,100475.97
2022-09-25T08:19:11.202Z,100480.66
2022-09-25T08:21:38.299Z,100479.47
2022-09-25T08:24:05.810Z,100480.06
2022-09-25T08:26:32.926Z,100480.19
2022-09-25T08:29:00.190Z,100477.97
2022-09-25T08:31:27.442Z,100478.31
2022-09-25T08:33:54.637Z,100474.59
2022-09-25T08:36:21.939Z,100477.94
2022-09-25T08:38:49.414Z,100472.66
2022-09-25T08:41:19.024Z,100477.34
2022-09-25T08:43:57.505Z,100483.84
2022-09-25T08:47:20.245Z,100478.06
2022-09-25T08:50:21.820Z,100479.41
2022-09-25T08:52:52.255Z,100479.25
2022-09-25T08:55:46.351Z,100475.69
2022-09-25T08:58:21.104Z,100482.53
2022-09-25T09:00:49.323Z,100473.38
2022-09-25T09:03:17.021Z,100471.34
2022-09-25T09:05:51.492Z,100468.94
2022-09-25T09:08:25.249Z,100472.66
2022-09-25T09:10:57.376Z,100471.56
2022-09-25T09:13:28.896Z,100466.47
2022-09-25T09:16:03.877Z,100469.00
2022-09-25T09:18:39.521Z,100470.31
2022-09-25T09:21:35.363Z,100469.84
2022-09-25T09:24:08.672Z,100472.81
2022-09-25T09:27:05.888Z,100467.03
2022-09-25T09:29:54.144Z,100470.47
2022-09-25T09:32:41.539Z,100470.09
2022-09-25T09:35:32.786Z,100467.59
2022-09-25T09:38:28.418Z,100467.22
2022-09-25T09:41:07.097Z,100457.44
2022-09-25T09:43:57.226Z,100458.63
2022-09-25T09:47:02.805Z,100443.06
2022-09-25T09:49:42.064Z,100439.91
2022-09-25T09:52:24.502Z,100439.41
2022-09-25T09:54:55.982Z,100437.66
2022-09-25T09:57:28.400Z,100440.31
2022-09-25T10:00:04.883Z,100439.81
2022-09-25T10:02:42.005Z,100435.09
2022-09-25T10:05:17.288Z,100434.72
2022-09-25T10:07:45.147Z,100435.69
2022-09-25T10:10:14.703Z,100432.25
2022-09-25T10:12:50.950Z,100435.63
2022-09-25T10:15:30.482Z,100435.75
2022-09-25T10:17:59.686Z,100431.66
2022-09-25T10:20:31.729Z,100425.72
2022-09-25T10:23:00.933Z,100427.38
2022-09-25T10:25:39.399Z,100426.88
2022-09-25T10:28:22.791Z,100433.66
2022-09-25T10:30:50.879Z,100429.25
2022-09-25T10:33:29.657Z,100429.91
2022-09-25T10:35:57.089Z,100430.41
2022-09-25T10:38:29.981Z,100426.91
2022-09-25T10:41:14.187Z,100423.78
2022-09-25T10:44:00.147Z,100427.69
2022-09-25T10:46:48.691Z,100426.84
2022-09-25T10:49:37.051Z,100424.25
2022-09-25T10:52:09.387Z,100419.78
2022-09-25T10:54:41.868Z,100415.19
2022-09-25T10:57:26.838Z,100414.31
2022-09-25T10:59:54.714Z,100412.25
2022-09-25T11:02:46.851Z,100409.50
2022-09-25T11:05:19.811Z,100407.09
2022-09-25T11:07:52.248Z,100412.25
2022-09-25T11:10:27.417Z,100413.03
2022-09-25T11:12:54.562Z,100409.78
2022-09-25T11:15:23.652Z,100405.38
2022-09-25T11:17:53.772Z,100411.69
2022-09-25T11:20:29.479Z,100419.03
2022-09-25T11:23:42.436Z,100406.38
2022-09-25T11:26:19.513Z,100401.34
2022-09-25T11:28:54.832Z,100408.22
2022-09-25T11:31:21.786Z,100400.06
2022-09-25T11:34:20.852Z,100402.19
2022-09-25T11:36:52.518Z,100403.22
2022-09-25T11:40:08.260Z,100402.94
2022-09-25T11:42:51.894Z,100396.94
2022-09-25T11:45:26.312Z,100385.91
2022-09-25T11:48:29.007Z,100388.38
2022-09-25T11:51:07.654Z,100383.34
2022-09-25T11:53:44.295Z,100378.00
2022-09-25T11:56:38.392Z,100375.34
2022-09-25T11:59:21.622Z,100370.75
2022-09-25T12:02:00.724Z,100367.16
2022-09-25T12:04:59.809Z,100365.09
2022-09-25T12:07:45.424Z,100369.44
2022-09-25T12:10:36.163Z,100368.06
2022-09-25T12:13:14.049Z,100366.16
2022-09-25T12:15:50.868Z,100360.13
2022-09-25T12:18:33.310Z,100356.47
2022-09-25T12:21:05.969Z,100354.69
2022-09-25T12:23:39.124Z,100357.06
2022-09-25T12:26:26.699Z,100353.72
2022-09-25T12:29:26.017Z,100350.59
2022-09-25T12:32:04.321Z,100346.47
2022-09-25T12:34:43.683Z,100355.53
2022-09-25T12:37:27.299Z,100350.03
2022-09-25T12:40:02.645Z,100348.88
2022-09-25T12:42:47.286Z,100342.53
2022-09-25T12:45:20.392Z,100348.38
2022-09-25T12:48:17.064Z,100343.59
2022-09-25T12:51:05.645Z,100347.44
2022-09-25T12:53:45.783Z,100340.06
2022-09-25T12:56:30.080Z,100341.72
2022-09-25T12:59:15.978Z,100342.91
2022-09-25T13:02:10.321Z,100340.19
2022-09-25T13:04:37.270Z,100326.78
2022-09-25T13:07:14.055Z,100331.53
2022-09-25T13:09:48.751Z,100326.34
2022-09-25T13:12:27.875Z,100332.94
2022-09-25T13:14:59.746Z,100326.34
2022-09-25T13:17:27.095Z,100334.56
2022-09-25T13:19:54.321Z,100330.34
2022-09-25T13:22:25.566Z,100329.47
2022-09-25T13:25:05.616Z,100324.97
2022-09-25T13:27:44.211Z,100325.78
2022-09-25T13:30:25.409Z,100328.63
2022-09-25T13:32:59.536Z,100328.97
2022-09-25T13:35:26.716Z,100333.59
2022-09-25T13:37:55.869Z,100321.38
2022-09-25T13:40:46.008Z,100320.31
2022-09-25T13:43:27.737Z,100325.19
2022-09-25T13:46:17.105Z,100317.72
2022-09-25T13:48:44.397Z,100315.22
2022-09-25T13:51:17.994Z,100308.22
2022-09-25T13:53:53.781Z,100301.69
2022-09-25T13:56:26.179Z,100301.94
2022-09-25T13:59:15.493Z,100290.63
2022-09-25T14:02:25.070Z,100290.16
2022-09-25T14:04:52.275Z,100281.28
2022-09-25T14:07:23.279Z,100279.28
2022-09-25T14:09:53.852Z,100286.31
2022-09-25T14:12:37.996Z,100289.16
2022-09-25T14:15:07.948Z,100282.66
2022-09-25T14:17:36.182Z,100298.16
2022-09-25T14:20:06.618Z,100292.41
2022-09-25T14:22:44.133Z,100288.63
2022-09-25T14:25:33.066Z,100288.22
2022-09-25T14:28:01.281Z,100283.63
2022-09-25T14:30:30.126Z,100279.66
2022-09-25T14:33:30.084Z,100282.47
2022-09-25T14:36:07.858Z,100274.38
2022-09-25T14:39:02.932Z,100269.59
2022-09-25T14:41:52.921Z,100267.34
2022-09-25T14:44:51.850Z,100262.78
2022-09-25T14:47:19.376Z,100270.63
2022-09-25T14:49:50.707Z,100262.00
2022-09-25T14:52:24.977Z,100270.28
2022-09-25T14:54:55.152Z,100269.03
2022-09-25T14:57:28.427Z,100270.16
2022-09-25T14:59:58.351Z,100264.16
2022-09-25T15:02:34.273Z,100259.84
2022-09-25T15:05:24.030Z,100256.53
2022-09-25T15:07:51.451Z,100255.00
2022-09-25T15:10:37.421Z,100243.66
2022-09-25T15:13:10.069Z,100254.03
2022-09-25T15:15:38.789Z,100259.38
2022-09-25T15:18:09.469Z,100261.69
2022-09-25T15:20:46.711Z,100261.72
2022-09-25T15:23:17.978Z,100261.91
2022-09-25T15:25:48.074Z,100262.34
2022-09-25T15:28:18.054Z,100258.09
2022-09-25T15:30:47.186Z,100250.03
2022-09-25T15:33:29.228Z,100252.91
2022-09-25T15:36:01.207Z,100249.19
2022-09-25T15:38:33.149Z,100253.06
2022-09-25T15:41:00.432Z,100249.69
2022-09-25T15:43:27.752Z,100242.16
2022-09-25T15:45:58.210Z,100243.94
2022-09-25T15:48:32.713Z,100244.41
2022-09-25T15:51:14.365Z,100237.53
2022-09-25T15:53:43.930Z,100247.94
2022-09-25T15:56:24.771Z,100248.47
2022-09-25T15:58:58.932Z,100240.38
2022-09-25T16:01:47.601Z,100239.81
2022-09-25T16:04:39.277Z,100243.44
2022-09-25T16:07:32.274Z,100247.31
2022-09-25T16:10:10.140Z,100236.59
2022-09-25T16:12:40.768Z,100236.53
2022-09-25T16:15:26.770Z,100235.00
2022-09-25T16:18:00.232Z,100239.22
2022-09-25T16:20:32.471Z,100229.94
2022-09-25T16:23:03.424Z,100222.63
2022-09-25T16:25:38.581Z,100222.91
2022-09-25T16:28:10.729Z,100218.34
2022-09-25T16:30:38.122Z,100231.66
2022-09-25T16:33:12.943Z,100237.09
2022-09-25T16:36:08.195Z,100236.84
2022-09-25T16:38:29.738Z,100234.94
2022-09-25T16:41:23.089Z,100239.44
2022-09-25T16:44:15.201Z,100240.44
2022-09-25T16:46:54.924Z,100244.09
2022-09-25T16:49:23.459Z,100246.34
2022-09-25T16:51:53.958Z,100244.91
2022-09-25T16:54:22.105Z,100250.66
2022-09-25T16:56:49.223Z,100243.81
2022-09-25T16:59:22.080Z,100246.03
2022-09-25T17:01:51.519Z,100241.03
2022-09-25T17:04:24.511Z,100241.72
2022-09-25T17:06:52.036Z,100234.00
2022-09-25T17:09:19.184Z,100229.00
2022-09-25T17:11:47.771Z,100231.66
2022-09-25T17:14:26.186Z,100226.19
2022-09-25T17:16:54.626Z,100221.81
2022-09-25T17:19:22.239Z,100225.84
2022-09-25T17:21:51.348Z,100219.56
2022-09-25T17:24:26.746Z,100221.09
2022-09-25T17:26:54.218Z,100221.53
2022-09-25T17:29:21.473Z,100216.47
2022-09-25T17:31:48.800Z,100219.97
2022-09-25T17:34:24.477Z,100224.59
2022-09-25T17:36:51.941Z,100220.78
2022-09-25T17:39:19.073Z,100222.91
2022-09-25T17:41:46.413Z,100225.25
2022-09-25T17:44:18.608Z,100226.38
2022-09-25T17:46:45.796Z,100238.09
2022-09-25T17:49:13.330Z,100228.16
2022-09-25T17:51:40.778Z,100236.41
2022-09-25T17:54:09.417Z,100234.44
2022-09-25T17:56:37.734Z,100238.59
2022-09-25T17:59:05.164Z,100229.22
2022-09-25T18:01:38.372Z,100229.91
2022-09-25T18:04:24.710Z,100235.31
2022-09-25T18:06:51.989Z,100239.34
2022-09-25T18:09:19.172Z,100233.47
2022-09-25T18:11:46.777Z,100238.53
2022-09-25T18:14:14.904Z,100238.66
2022-09-25T18:16:43.560Z,100239.91
2022-09-25T18:19:34.238Z,100238.78
2022-09-25T18:22:21.816Z,100234.31
2022-09-25T18:24:56.276Z,100240.72
2022-09-25T18:27:28.795Z,100243.06
2022-09-25T18:29:56.320Z,100236.31
2022-09-25T18:32:24.157Z,100227.78
2022-09-25T18:34:51.557Z,100234.31
2022-09-25T18:37:18.956Z,100232.06
2022-09-25T18:39:47.896Z,100225.09
2022-09-25T18:42:15.055Z,100221.53
2022-09-25T18:44:43.246Z,100218.44
2022-09-25T18:47:11.483Z,100225.09
2022-09-25T18:49:38.730Z,100228.72
2022-09-25T18:52:06.135Z,100226.13
2022-09-25T18:54:34.419Z,100224.13
2022-09-25T18:57:01.892Z,100227.16
2022-09-25T18:59:29.085Z,100224.66
2022-09-25T19:01:56.605Z,100229.94
2022-09-25T19:04:25.667Z,100229.09
2022-09-25T19:06:52.947Z,100232.75
2022-09-25T19:09:28.175Z,100229.56
2022-09-25T19:11:55.782Z,100223.34
2022-09-25T19:14:23.981Z,100223.28
2022-09-25T19:16:53.781Z,100221.78
2022-09-25T19:19:20.961Z,100222.09
2022-09-25T19:21:48.127Z,100225.38
2022-09-25T19:24:18.177Z,100225.28
2022-09-25T19:26:45.535Z,100228.09
2022-09-25T19:29:12.732Z,100231.78
2022-09-25T19:31:40.116Z,100229.38
2022-09-25T19:34:07.369Z,100227.84
2022-09-25T19:36:34.844Z,100223.41
2022-09-25T19:39:02.609Z,100211.63
2022-09-25T19:41:31.867Z,100218.97
2022-09-25T19:44:11.314Z,100212.38
2022-09-25T19:46:41.546Z,100215.50
2022-09-25T19:49:09.485Z,100220.09
2022-09-25T19:51:37.646Z,100227.28
2022-09-25T19:54:07.434Z,100215.88
2022-09-25T19:56:40.429Z,100215.88
2022-09-25T19:59:10.022Z,100214.41
2022-09-25T20:01:38.201Z,100208.66
2022-09-25T20:04:08.469Z,100204.28
2022-09-25T20:06:36.890Z,100202.63
2022-09-25T20:09:04.521Z,100205.16
2022-09-25T20:11:33.279Z,100205.03
2022-09-25T20:14:02.815Z,100202.63
2022-09-25T20:16:30.151Z,100209.50
2022-09-25T20:19:00.174Z,100204.09
2022-09-25T20:21:30.119Z,100212.03
2022-09-25T20:23:59.693Z,100212.41
2022-09-25T20:26:27.438Z,100205.69
2022-09-25T20:28:58.200Z,100204.63
2022-09-25T20:33:54.912Z,100193.38
2022-09-25T20:36:22.646Z,100190.41
2022-09-25T20:38:53.587Z,100196.91
2022-09-25T20:41:22.233Z,100197.41
2022-09-25T20:43:50.812Z,100179.34
2022-09-25T20:46:19.558Z,100183.47
2022-09-25T20:48:48.051Z,100186.22
2022-09-25T20:51:17.560Z,100188.88
2022-09-25T20:53:49.748Z,100194.75
2022-09-25T20:56:17.288Z,100195.38
2022-09-25T20:58:49.429Z,100184.91
2022-09-25T21:01:22.942Z,100181.91
2022-09-25T21:03:51.173Z,100179.75
2022-09-25T21:06:26.348Z,100178.28
2022-09-25T21:08:55.269Z,100185.75
2022-09-25T21:11:23.229Z,100182.63
2022-09-25T21:13:52.066Z,100172.31
2022-09-25T21:16:20.966Z,100176.03
2022-09-25T21:18:53.267Z,100168.44
2022-09-25T21:21:20.545Z,100167.59
2022-09-25T21:23:50.009Z,100170.38
2022-09-25T21:26:17.509Z,100164.97
2022-09-25T21:28:46.660Z,100167.38
2022-09-25T21:31:19.678Z,100168.19
2022-09-25T21:33:46.937Z,100163.88
2022-09-25T21:36:16.788Z,100157.84
2022-09-25T21:38:44.008Z,100154.63
2022-09-25T21:41:15.753Z,100149.56
2022-09-25T21:43:43.151Z,100147.78
2022-09-25T21:46:15.922Z,100151.13
2022-09-25T21:48:49.349Z,100142.94
2022-09-25T21:51:17.611Z,100148.00
2022-09-25T21:53:44.829Z,100147.16
2022-09-25T21:56:14.386Z,100147.59
2022-09-25T21:58:41.875Z,100141.94
2022-09-25T22:01:19.947Z,100136.31
2022-09-25T22:03:49.752Z,100138.34
2022-09-25T22:06:19.992Z,100142.19
2022-09-25T22:08:52.091Z,100132.94
2022-09-25T22:11:19.983Z,100134.25
2022-09-25T22:13:48.344Z,100127.88
2022-09-25T22:16:24.052Z,100126.19
2022-09-25T22:18:57.237Z,100131.22
2022-09-25T22:21:26.912Z,100127.66
2022-09-25T22:23:54.042Z,100130.66
2022-09-25T22:26:22.077Z,100136.06
2022-09-25T22:28:49.596Z,100137.97
2022-09-25T22:31:19.220Z,100144.19
2022-09-25T22:33:47.664Z,100137.22
2022-09-25T22:36:14.933Z,100134.31
2022-09-25T22:38:42.096Z,100134.44
2022-09-25T22:41:11.256Z,100132.97
2022-09-25T22:43:38.544Z,100129.72
2022-09-25T22:46:06.707Z,100124.06
2022-09-25T22:48:34.227Z,100122.50
2022-09-25T22:51:06.491Z,100126.59
2022-09-25T22:53:34.990Z,100126.50
2022-09-25T22:56:16.151Z,100114.13
2022-09-25T22:58:47.013Z,100102.94
2022-09-25T23:01:20.960Z,100102.94
2022-09-25T23:03:48.135Z,100105.59
2022-09-25T23:06:15.248Z,100111.84
2022-09-25T23:08:42.386Z,100111.94
2022-09-25T23:11:09.479Z,100110.81
2022-09-25T23:13:36.727Z,100112.25
2022-09-25T23:16:07.742Z,100113.59
2022-09-25T23:18:36.501Z,100108.78
2022-09-25T23:21:04.318Z,100107.94
2022-09-25T23:23:31.645Z,100100.38
2022-09-25T23:26:06.029Z,100103.38
2022-09-25T23:28:35.086Z,100102.03
2022-09-25T23:31:20.756Z,100102.16
2022-09-25T23:33:48.080Z,100102.38
2022-09-25T23:36:21.693Z,100107.03
2022-09-25T23:38:49.876Z,100107.16
2022-09-25T23:41:24.060Z,100109.88
2022-09-25T23:43:52.111Z,100102.09
2022-09-25T23:46:21.095Z,100101.38
2022-09-25T23:48:48.418Z,100096.31
2022-09-25T23:51:17.915Z,100087.66
2022-09-25T23:53:45.323Z,100086.09
2022-09-25T23:56:15.841Z,100084.69
2022-09-25T23:58:43.762Z,100073.75
